Time;durP1;ratioP1;P1;durP2;ratioP2;P2;SDS_P1;SDS_P2;PMS_P1;PMS_P2;Temp;Humidity;BMP_temperature;BMP_pressure;BME280_temperature;BME280_humidity;BME280_pressure;Samples;Min_cycle;Max_cycle;Signal;HPM_P1;HPM_P2
2021/06/29 00:00:07;;;;;;;4.85;4.51;;;;;;;23.26;68.59;100391.86;437067;118;922903;-71
2021/06/29 00:01:11;;;;;;;5.02;4.62;;;;;;;23.25;68.70;100391.03;436810;119;923113;-71
2021/06/29 00:02:15;;;;;;;5.63;5.14;;;;;;;23.24;68.75;100388.55;437645;119;922569;-71
2021/06/29 00:03:18;;;;;;;4.92;4.54;;;;;;;23.23;68.80;100392.45;437572;119;922480;-71
2021/06/29 00:04:22;;;;;;;4.66;4.38;;;;;;;23.22;68.82;100396.35;437594;118;922483;-71
2021/06/29 00:05:26;;;;;;;4.81;4.43;;;;;;;23.21;68.84;100403.08;437570;118;930533;-70
2021/06/29 00:06:30;;;;;;;7.14;5.82;;;;;;;23.20;68.85;100402.24;437402;120;923029;-71
2021/06/29 00:07:34;;;;;;;5.44;4.87;;;;;;;23.21;68.87;100397.51;436651;119;923145;-72
2021/06/29 00:08:38;;;;;;;5.39;4.97;;;;;;;23.20;68.86;100398.63;437238;118;931937;-70
2021/06/29 00:09:43;;;;;;;5.74;5.19;;;;;;;23.19;68.84;100403.37;434802;118;933314;-70
2021/06/29 00:10:48;;;;;;;5.26;4.83;;;;;;;23.20;68.86;100406.98;438523;119;922490;-70
2021/06/29 00:11:52;;;;;;;6.15;5.06;;;;;;;23.19;68.76;100394.19;437386;117;922769;-71
2021/06/29 00:12:56;;;;;;;6.85;4.88;;;;;;;23.20;68.65;100404.20;437372;118;923377;-71
2021/06/29 00:14:00;;;;;;;5.49;5.08;;;;;;;23.18;68.67;100395.31;436914;118;924673;-71
2021/06/29 00:15:04;;;;;;;5.46;4.88;;;;;;;23.17;68.66;100402.83;436852;121;924051;-71
2021/06/29 00:16:08;;;;;;;6.08;5.59;;;;;;;23.16;68.56;100403.13;436878;119;933803;-70
2021/06/29 00:17:12;;;;;;;8.57;5.28;;;;;;;23.14;68.54;100399.84;437346;117;927112;-71
2021/06/29 00:18:16;;;;;;;6.77;5.32;;;;;;;23.13;68.46;100409.30;437866;118;922717;-72
2021/06/29 00:19:20;;;;;;;5.45;5.11;;;;;;;23.12;68.43;100399.30;437184;120;924135;-72
2021/06/29 00:20:25;;;;;;;5.53;5.07;;;;;;;23.09;68.46;100403.53;436358;119;924696;-72
2021/06/29 00:21:28;;;;;;;7.01;5.19;;;;;;;23.08;68.50;100406.61;436525;119;924864;-69
2021/06/29 00:22:34;;;;;;;5.06;4.64;;;;;;;23.04;68.55;100400.00;436896;118;934306;-70
2021/06/29 00:23:38;;;;;;;5.17;4.78;;;;;;;23.01;68.57;100398.64;437637;119;923901;-70
2021/06/29 00:24:42;;;;;;;6.02;5.42;;;;;;;22.98;68.59;100399.25;436290;119;932610;-69
2021/06/29 00:25:45;;;;;;;5.82;5.33;;;;;;;22.96;68.62;100400.67;437520;118;923615;-70
2021/06/29 00:26:49;;;;;;;8.01;5.30;;;;;;;22.93;68.65;100399.34;437307;118;924070;-70
2021/06/29 00:27:53;;;;;;;5.36;4.95;;;;;;;22.91;68.69;100392.41;427680;122;926548;-70
2021/06/29 00:28:57;;;;;;;5.12;4.54;;;;;;;22.88;68.72;100399.38;426912;122;931906;-70
2021/06/29 00:30:01;;;;;;;5.46;4.98;;;;;;;22.86;68.72;100394.15;419338;123;924731;-71
2021/06/29 00:31:06;;;;;;;6.01;5.53;;;;;;;22.86;68.75;100399.70;425069;123;926174;-70
2021/06/29 00:32:09;;;;;;;5.87;5.35;;;;;;;22.84;68.74;100396.39;424312;124;925061;-71
2021/06/29 00:33:13;;;;;;;5.95;5.10;;;;;;;22.83;68.74;100399.46;424183;123;932745;-71
2021/06/29 00:34:17;;;;;;;6.87;4.91;;;;;;;22.82;68.75;100398.62;422988;123;923186;-71
2021/06/29 00:35:21;;;;;;;5.76;5.26;;;;;;;22.80;68.75;100398.12;423890;123;924494;-71
2021/06/29 00:36:26;;;;;;;5.97;5.41;;;;;;;22.79;68.71;100398.42;424116;123;932473;-72
2021/06/29 00:37:30;;;;;;;5.03;4.68;;;;;;;22.76;68.62;100402.64;425934;121;925404;-72
2021/06/29 00:38:34;;;;;;;5.51;5.09;;;;;;;22.73;68.65;100391.28;430180;121;932616;-71
2021/06/29 00:39:38;;;;;;;5.84;5.38;;;;;;;22.70;68.67;100395.47;430271;121;925580;-71
2021/06/29 00:40:42;;;;;;;7.01;5.17;;;;;;;22.68;68.77;100397.70;430208;121;931984;-70
2021/06/29 00:41:45;;;;;;;5.51;4.82;;;;;;;22.66;68.82;100399.95;430224;121;924694;-70
2021/06/29 00:42:49;;;;;;;6.80;5.13;;;;;;;22.65;68.86;100395.55;430383;121;924140;-70
2021/06/29 00:43:53;;;;;;;5.08;4.66;;;;;;;22.64;68.88;100399.44;430149;121;932476;-72
2021/06/29 00:44:57;;;;;;;5.62;5.08;;;;;;;22.63;68.87;100395.00;430760;121;923339;-72
2021/06/29 00:46:01;;;;;;;5.39;4.90;;;;;;;22.62;68.81;100401.68;430192;121;922611;-72
2021/06/29 00:47:08;;;;;;;5.70;4.69;;;;;;;22.60;68.77;100395.61;430288;121;922779;-71
2021/06/29 00:48:12;;;;;;;5.75;5.24;;;;;;;22.57;68.79;100398.97;429618;121;930701;-71
2021/06/29 00:49:16;;;;;;;6.48;5.79;;;;;;;22.56;68.89;100399.27;427145;123;922626;-71
2021/06/29 00:50:22;;;;;;;5.61;4.96;;;;;;;22.54;68.95;100388.47;418734;124;922650;-70
2021/06/29 00:51:26;;;;;;;5.58;5.09;;;;;;;22.54;68.98;100396.80;427296;122;922951;-72
2021/06/29 00:52:29;;;;;;;5.23;4.73;;;;;;;22.56;69.27;100405.65;426602;123;923246;-70
2021/06/29 00:53:33;;;;;;;6.03;5.53;;;;;;;22.56;69.27;100405.65;427309;122;930472;-70
2021/06/29 00:54:37;;;;;;;5.21;4.89;;;;;;;22.56;68.91;100404.82;426317;121;930679;-71
2021/06/29 00:55:42;;;;;;;5.58;5.24;;;;;;;22.56;68.89;100402.05;426497;122;924092;-71
2021/06/29 00:56:46;;;;;;;5.83;5.33;;;;;;;22.54;68.89;100402.36;435034;120;922590;-71
2021/06/29 00:57:51;;;;;;;6.13;5.43;;;;;;;22.54;68.90;100395.98;434547;118;923135;-71
2021/06/29 00:58:55;;;;;;;5.97;5.41;;;;;;;22.51;68.87;100394.61;426365;122;922764;-71
2021/06/29 00:59:59;;;;;;;5.85;5.36;;;;;;;22.49;68.93;100394.09;434548;120;923048;-70
2021/06/29 01:01:02;;;;;;;6.06;5.51;;;;;;;22.48;68.97;100398.00;433918;120;923009;-72
2021/06/29 01:02:07;;;;;;;5.64;5.24;;;;;;;22.46;69.03;100400.23;426097;122;923187;-71
2021/06/29 01:03:11;;;;;;;7.07;5.82;;;;;;;22.45;69.05;100404.13;428740;121;925068;-71
2021/06/29 01:04:14;;;;;;;5.41;4.99;;;;;;;22.43;69.12;100400.84;425823;122;925409;-70
2021/06/29 01:05:19;;;;;;;7.33;5.66;;;;;;;22.40;69.17;100401.42;425938;121;932070;-68
2021/06/29 01:06:24;;;;;;;5.58;5.23;;;;;;;22.38;69.23;100400.91;426255;122;932791;-70
2021/06/29 01:07:29;;;;;;;6.27;5.71;;;;;;;22.34;69.29;100397.88;426287;120;924243;-72
2021/06/29 01:08:33;;;;;;;11.42;5.72;;;;;;;22.33;69.35;100400.95;426430;122;925562;-72
2021/06/29 01:09:38;;;;;;;7.56;6.14;;;;;;;22.29;69.44;100389.61;425796;122;926139;-71
2021/06/29 01:10:42;;;;;;;7.01;6.02;;;;;;;22.27;69.51;100407.72;425817;121;927734;-70
2021/06/29 01:11:47;;;;;;;6.09;5.65;;;;;;;22.26;69.57;100400.50;427107;122;926872;-70
2021/06/29 01:12:50;;;;;;;6.95;5.75;;;;;;;22.22;69.66;100394.69;430790;121;934250;-70
2021/06/29 01:13:54;;;;;;;6.95;5.98;;;;;;;22.22;69.70;100402.23;433238;120;924084;-70
2021/06/29 01:14:57;;;;;;;8.07;6.27;;;;;;;22.19;69.73;100402.80;425416;122;924132;-71
2021/06/29 01:16:03;;;;;;;7.06;5.92;;;;;;;22.17;69.75;100403.09;427619;122;924012;-71
2021/06/29 01:17:07;;;;;;;5.56;5.18;;;;;;;22.15;69.83;100397.02;425760;122;924800;-72
2021/06/29 01:18:12;;;;;;;6.47;5.78;;;;;;;22.14;69.87;100397.31;433962;120;925950;-69
2021/06/29 01:19:31;;;;;;;6.72;5.92;;;;;;;22.12;69.90;100394.82;426371;122;924523;-72
2021/06/29 01:20:31;;;;;;;6.53;5.77;;;;;;;22.12;69.91;100393.98;432827;120;924145;-71
2021/06/29 01:21:42;;;;;;;11.78;5.78;;;;;;;22.10;69.95;100394.31;425918;123;924640;-71
2021/06/29 01:22:49;;;;;;;7.16;5.94;;;;;;;22.10;69.94;100399.86;434569;120;925642;-70
2021/06/29 01:23:54;;;;;;;7.32;6.06;;;;;;;22.08;69.96;100396.55;426341;124;924525;-70
2021/06/29 01:24:58;;;;;;;9.48;5.26;;;;;;;22.06;69.96;100393.22;427241;122;924057;-71
2021/06/29 01:26:24;;;;;;;6.44;5.29;;;;;;;22.02;70.03;100389.39;433639;120;925089;-70
2021/06/29 01:28:45;;;;;;;8.40;6.24;;;;;;;21.99;70.17;100401.10;425913;122;924137;-70
2021/06/29 01:30:57;;;;;;;6.70;6.19;;;;;;;21.97;70.19;100403.33;424895;122;925492;-70
2021/06/29 01:31:08;;;;;;;6.40;5.62;;;;;;;21.96;70.23;100408.05;431399;120;926177;-70
2021/06/29 01:32:13;;;;;;;8.03;5.75;;;;;;;21.95;70.32;100402.78;434353;120;925722;-71
2021/06/29 01:33:20;;;;;;;6.07;5.53;;;;;;;21.93;70.39;100408.62;428962;121;922552;-71
2021/06/29 01:34:23;;;;;;;6.17;5.07;;;;;;;21.91;70.40;100405.30;427918;121;922520;-71
2021/06/29 01:35:27;;;;;;;6.76;5.91;;;;;;;21.92;70.46;100400.58;426823;122;924223;-70
2021/06/29 01:36:36;;;;;;;6.43;5.59;;;;;;;21.91;70.45;100402.53;425821;122;925971;-71
2021/06/29 01:37:40;;;;;;;8.96;5.44;;;;;;;21.89;70.48;100401.98;427242;122;924073;-71
2021/06/29 01:38:45;;;;;;;7.08;5.64;;;;;;;21.89;70.50;100398.38;426325;121;924105;-70
2021/06/29 01:39:57;;;;;;;7.58;5.90;;;;;;;21.88;70.50;100399.52;426706;122;930545;-70
2021/06/29 01:40:59;;;;;;;;;;;;;;;21.87;70.49;100401.47;430137;122;922461;-70
2021/06/29 01:42:04;;;;;;;9.74;5.62;;;;;;;21.87;70.53;100393.14;426653;122;923134;-70
2021/06/29 01:43:08;;;;;;;8.56;5.92;;;;;;;21.84;70.62;100399.27;426927;121;922670;-70
2021/06/29 01:44:17;;;;;;;6.79;5.86;;;;;;;21.83;70.64;100396.80;434293;120;922888;-70
2021/06/29 01:45:17;;;;;;;9.79;6.01;;;;;;;21.80;70.66;100403.76;426774;122;930462;-70
2021/06/29 01:46:23;;;;;;;6.22;5.56;;;;;;;21.79;70.65;100396.55;434043;120;924318;-69
2021/06/29 01:47:37;;;;;;;6.31;5.58;;;;;;;21.77;70.68;100398.81;427113;122;922833;-70
2021/06/29 01:48:35;;;;;;;5.57;5.15;;;;;;;21.77;70.68;100395.20;433914;120;922641;-70
2021/06/29 01:49:39;;;;;;;8.64;6.34;;;;;;;21.76;70.70;100396.31;434637;120;923543;-70
2021/06/29 01:50:43;;;;;;;8.18;5.42;;;;;;;21.74;70.75;100393.83;433953;120;922639;-71
2021/06/29 01:51:46;;;;;;;5.87;5.17;;;;;;;21.73;70.70;100402.44;427032;122;930650;-71
2021/06/29 01:52:58;;;;;;;10.76;5.29;;;;;;;21.72;70.71;100393.31;434201;120;930622;-71
2021/06/29 01:54:02;;;;;;;7.28;5.54;;;;;;;21.71;70.73;100394.42;426596;123;930567;-70
2021/06/29 01:55:07;;;;;;;6.28;5.52;;;;;;;21.71;70.76;100394.42;434433;120;924114;-71
2021/06/29 01:56:18;;;;;;;7.18;5.63;;;;;;;21.71;70.76;100397.20;426285;122;930674;-71
2021/06/29 01:57:21;;;;;;;;;;;;;;;21.70;70.81;100389.99;437102;119;930310;-70
2021/06/29 01:58:26;;;;;;;5.73;4.86;;;;;;;21.70;70.82;100387.22;434425;120;924069;-70
2021/06/29 01:59:30;;;;;;;6.13;5.63;;;;;;;21.69;70.82;100385.55;426879;122;924713;-70
2021/06/29 02:00:35;;;;;;;5.95;5.22;;;;;;;21.68;70.85;100383.06;426417;122;923128;-70
2021/06/29 02:01:39;;;;;;;7.61;5.97;;;;;;;21.69;70.88;100391.11;426338;122;924079;-70
2021/06/29 02:02:43;;;;;;;6.42;5.82;;;;;;;21.70;70.89;100397.48;434989;120;930483;-71
2021/06/29 02:03:47;;;;;;;6.21;5.73;;;;;;;21.71;70.87;100394.42;433928;120;924042;-71
2021/06/29 02:04:50;;;;;;;7.62;5.94;;;;;;;21.71;70.81;100394.42;426327;122;924264;-71
2021/06/29 02:05:54;;;;;;;6.11;5.61;;;;;;;21.71;70.79;100397.20;434147;120;924532;-71
2021/06/29 02:06:58;;;;;;;6.97;6.21;;;;;;;21.71;70.80;100396.37;426808;122;930541;-72
2021/06/29 02:08:02;;;;;;;7.54;6.75;;;;;;;21.69;70.83;100393.88;433303;120;924466;-71
2021/06/29 02:09:10;;;;;;;6.44;5.75;;;;;;;21.69;70.84;100402.20;426163;122;932142;-71
2021/06/29 02:10:16;;;;;;;6.54;5.34;;;;;;;21.69;70.85;100401.38;433223;120;923258;-71
2021/06/29 02:11:19;;;;;;;6.86;5.64;;;;;;;21.67;70.84;100404.44;426199;123;925492;-71
2021/06/29 02:12:23;;;;;;;6.27;5.67;;;;;;;21.66;70.89;100400.03;426406;122;924538;-68
2021/06/29 02:13:27;;;;;;;6.26;5.61;;;;;;;21.64;70.93;100396.70;434359;120;933324;-70
2021/06/29 02:14:31;;;;;;;6.69;6.16;;;;;;;21.61;70.95;100395.33;426081;122;924124;-70
2021/06/29 02:15:35;;;;;;;6.31;5.31;;;;;;;21.59;70.95;100403.14;433943;121;924388;-70
2021/06/29 02:16:38;;;;;;;6.72;5.56;;;;;;;21.57;71.07;100401.77;426357;122;924677;-72
2021/06/29 02:17:42;;;;;;;7.15;6.32;;;;;;;21.54;71.11;100399.59;433491;117;924540;-69
2021/06/29 02:18:46;;;;;;;6.37;5.87;;;;;;;21.53;71.17;100400.70;426870;122;924165;-70
2021/06/29 02:19:49;;;;;;;5.86;5.36;;;;;;;21.54;71.18;100399.59;434810;120;933021;-71
2021/06/29 02:20:53;;;;;;;6.45;5.86;;;;;;;21.54;71.16;100396.81;433528;120;933296;-70
2021/06/29 02:21:57;;;;;;;6.36;5.58;;;;;;;21.57;71.19;100396.21;434190;120;922729;-71
2021/06/29 02:23:00;;;;;;;7.32;5.64;;;;;;;21.57;71.12;100397.05;426079;122;932013;-72
2021/06/29 02:24:05;;;;;;;6.29;5.47;;;;;;;21.58;71.08;100397.88;432273;120;924143;-70
2021/06/29 02:25:09;;;;;;;6.23;5.73;;;;;;;21.59;71.07;100392.04;426255;122;924247;-71
2021/06/29 02:26:15;;;;;;;6.05;5.49;;;;;;;21.61;71.01;100398.11;429292;121;924016;-72
2021/06/29 02:27:18;;;;;;;5.60;5.23;;;;;;;21.63;70.90;100403.37;426285;122;924775;-70
2021/06/29 02:28:23;;;;;;;6.01;5.15;;;;;;;21.63;70.87;100403.37;433470;120;932040;-70
2021/06/29 02:29:27;;;;;;;5.65;5.25;;;;;;;21.63;70.84;100400.59;426222;122;930957;-70
2021/06/29 02:30:31;;;;;;;6.81;6.16;;;;;;;21.63;70.80;100400.59;425852;122;924199;-71
2021/06/29 02:31:34;;;;;;;5.92;5.37;;;;;;;21.63;70.74;100400.59;433740;120;924489;-71
2021/06/29 02:32:39;;;;;;;5.39;4.88;;;;;;;21.61;70.68;100400.08;427063;122;931980;-71
2021/06/29 02:33:43;;;;;;;7.27;5.22;;;;;;;21.59;70.70;100394.81;426601;122;923104;-71
2021/06/29 02:34:46;;;;;;;6.44;5.18;;;;;;;21.59;70.75;100402.31;420899;123;922849;-71
2021/06/29 02:35:50;;;;;;;6.04;5.57;;;;;;;21.59;70.75;100391.21;421762;121;922774;-70
2021/06/29 02:36:53;;;;;;;6.31;5.50;;;;;;;21.59;70.71;100397.59;427237;122;923072;-70
2021/06/29 02:37:57;;;;;;;6.90;5.85;;;;;;;21.60;70.75;100399.25;433808;120;922757;-70
2021/06/29 02:39:01;;;;;;;6.37;5.80;;;;;;;21.64;70.72;100400.31;435227;120;922665;-70
2021/06/29 02:40:06;;;;;;;6.30;5.57;;;;;;;21.72;70.68;100395.26;426748;122;930428;-71
2021/06/29 02:41:10;;;;;;;6.16;5.10;;;;;;;21.79;70.50;100392.94;433233;120;922383;-70
2021/06/29 02:42:13;;;;;;;6.46;5.92;;;;;;;21.82;70.31;100390.42;434518;120;922565;-71
2021/06/29 02:43:17;;;;;;;5.81;5.39;;;;;;;21.85;70.15;100387.05;426413;122;922562;-71
2021/06/29 02:44:22;;;;;;;5.86;5.40;;;;;;;21.85;70.04;100384.27;434351;120;930716;-71
2021/06/29 02:45:26;;;;;;;5.84;5.44;;;;;;;21.87;69.90;100393.14;434343;121;930472;-71
2021/06/29 02:46:30;;;;;;;7.15;5.48;;;;;;;21.87;69.86;100393.14;433945;120;922542;-70
2021/06/29 02:47:37;;;;;;;5.84;5.39;;;;;;;21.86;69.83;100393.43;433869;120;922601;-70
2021/06/29 02:48:40;;;;;;;6.63;5.79;;;;;;;21.85;69.82;100400.09;434209;120;930887;-71
2021/06/29 02:49:44;;;;;;;6.26;5.26;;;;;;;21.84;69.85;100398.44;434156;120;925561;-70
2021/06/29 02:50:48;;;;;;;6.11;5.47;;;;;;;21.84;69.89;100398.44;433163;120;932699;-70
2021/06/29 02:51:51;;;;;;;6.16;5.59;;;;;;;21.84;69.89;100406.77;433748;120;926856;-71
2021/06/29 02:52:55;;;;;;;9.63;6.09;;;;;;;21.84;69.87;100404.81;433129;120;925447;-72
2021/06/29 02:53:59;;;;;;;5.86;5.37;;;;;;;21.84;69.84;100404.81;434396;120;932114;-71
2021/06/29 02:55:06;;;;;;;5.51;5.14;;;;;;;21.84;69.84;100404.81;433500;120;931985;-71
2021/06/29 02:57:32;;;;;;;6.86;6.37;;;;;;;21.84;69.89;100412.31;434151;120;924128;-70
2021/06/29 02:58:35;;;;;;;6.47;5.92;;;;;;;21.85;69.86;100406.48;426571;123;924139;-70
2021/06/29 02:59:39;;;;;;;6.02;5.48;;;;;;;21.87;69.84;100414.52;434215;120;933438;-71
2021/06/29 03:00:44;;;;;;;7.12;6.09;;;;;;;21.88;69.74;100405.08;426124;122;922937;-70
2021/06/29 03:01:47;;;;;;;6.02;5.62;;;;;;;21.89;69.74;100413.09;433807;120;924120;-71
2021/06/29 03:02:53;;;;;;;6.83;5.77;;;;;;;21.91;69.64;100410.86;433738;120;932103;-68
2021/06/29 03:03:57;;;;;;;5.84;5.35;;;;;;;21.91;69.54;100413.63;427924;120;924595;-71
2021/06/29 03:05:01;;;;;;;6.54;5.85;;;;;;;21.93;69.51;100408.62;425888;122;932649;-72
2021/06/29 03:06:06;;;;;;;7.01;6.14;;;;;;;21.93;69.49;100407.80;433504;120;932068;-71
2021/06/29 03:07:09;;;;;;;6.39;5.87;;;;;;;21.95;69.41;100409.17;426854;122;924127;-71
2021/06/29 03:08:13;;;;;;;6.68;5.87;;;;;;;21.96;69.37;100410.83;434216;120;932403;-71
2021/06/29 03:09:16;;;;;;;6.46;5.58;;;;;;;21.97;69.26;100418.05;426084;122;931798;-71
2021/06/29 03:10:21;;;;;;;6.26;5.86;;;;;;;21.97;69.16;100412.49;433928;120;924101;-71
2021/06/29 03:11:25;;;;;;;7.11;6.05;;;;;;;21.99;69.10;100412.20;434335;120;924037;-71
2021/06/29 03:12:28;;;;;;;6.59;6.12;;;;;;;21.99;69.09;100413.03;433868;120;926317;-70
2021/06/29 03:13:32;;;;;;;6.90;6.16;;;;;;;22.00;69.08;100409.11;426297;120;924080;-71
2021/06/29 03:14:37;;;;;;;7.09;6.42;;;;;;;22.01;68.95;100410.77;434258;120;930599;-72
2021/06/29 03:15:40;;;;;;;12.84;6.63;;;;;;;22.01;69.00;100413.55;434216;120;931945;-72
2021/06/29 03:16:44;;;;;;;6.21;5.62;;;;;;;22.02;69.05;100414.38;434270;120;924423;-72
2021/06/29 03:17:50;;;;;;;6.19;5.69;;;;;;;22.01;69.10;100413.55;424474;122;932424;-70
2021/06/29 03:18:53;;;;;;;6.76;6.21;;;;;;;22.02;69.09;100411.61;423397;122;931956;-71
2021/06/29 03:19:57;;;;;;;7.16;6.48;;;;;;;22.02;69.06;100417.16;426131;122;923048;-70
2021/06/29 03:21:01;;;;;;;7.46;6.81;;;;;;;22.03;69.13;100425.20;433974;121;924155;-70
2021/06/29 03:22:06;;;;;;;7.05;6.37;;;;;;;22.04;69.11;100415.75;426731;122;924126;-72
2021/06/29 03:23:09;;;;;;;6.98;6.46;;;;;;;22.07;68.97;100424.59;434283;120;923674;-71
2021/06/29 03:24:13;;;;;;;7.10;6.62;;;;;;;22.08;68.80;100423.48;426537;122;933046;-72
2021/06/29 03:25:16;;;;;;;6.79;6.29;;;;;;;22.07;68.79;100419.87;434985;120;932121;-71
2021/06/29 03:26:20;;;;;;;7.52;7.00;;;;;;;22.06;68.77;100412.66;434760;119;924591;-69
2021/06/29 03:27:24;;;;;;;6.89;6.45;;;;;;;22.05;68.83;100422.14;433638;120;924095;-71
2021/06/29 03:28:28;;;;;;;8.83;6.52;;;;;;;22.05;68.82;100422.94;434871;115;932036;-71
2021/06/29 03:29:33;;;;;;;7.37;6.74;;;;;;;22.05;68.79;100428.48;435040;120;922835;-72
2021/06/29 03:30:37;;;;;;;7.20;6.60;;;;;;;22.05;68.83;100422.14;426408;121;922717;-72
2021/06/29 03:31:41;;;;;;;6.95;6.28;;;;;;;22.05;68.91;100425.72;427210;122;923146;-73
2021/06/29 03:32:45;;;;;;;6.53;6.13;;;;;;;22.07;68.87;100428.20;433811;120;922885;-71
2021/06/29 03:33:49;;;;;;;7.06;6.52;;;;;;;22.12;69.24;100428.14;429117;122;922650;-71
2021/06/29 03:34:52;;;;;;;8.64;6.16;;;;;;;22.12;69.24;100428.14;430558;122;922736;-72
2021/06/29 03:35:56;;;;;;;6.77;6.26;;;;;;;22.15;68.83;100430.34;430582;121;922913;-72
2021/06/29 03:37:03;;;;;;;6.54;5.67;;;;;;;22.18;68.74;100428.91;430331;121;922569;-71
2021/06/29 03:38:07;;;;;;;6.21;5.80;;;;;;;22.20;68.73;100427.51;430320;122;922590;-72
2021/06/29 03:39:11;;;;;;;6.28;5.83;;;;;;;22.23;68.64;100421.34;428148;118;922897;-72
2021/06/29 03:40:16;;;;;;;6.73;6.23;;;;;;;22.25;68.59;100427.45;426402;123;930575;-72
2021/06/29 03:41:20;;;;;;;7.08;6.14;;;;;;;22.28;68.54;100426.84;432459;120;922580;-72
2021/06/29 03:42:24;;;;;;;11.26;6.29;;;;;;;22.30;68.40;100426.55;432390;122;922643;-72
2021/06/29 03:43:27;;;;;;;6.28;5.86;;;;;;;22.34;68.35;100431.22;432325;120;922733;-71
2021/06/29 03:44:31;;;;;;;7.04;6.48;;;;;;;22.36;68.28;100428.98;432402;120;922827;-71
2021/06/29 03:45:35;;;;;;;7.04;6.46;;;;;;;22.37;68.24;100427.86;431684;121;932814;-72
2021/06/29 03:46:39;;;;;;;7.00;5.91;;;;;;;22.39;68.17;100433.93;427556;121;924184;-70
2021/06/29 03:47:43;;;;;;;9.69;6.32;;;;;;;22.41;68.17;100434.47;432060;120;924548;-71
2021/06/29 03:48:47;;;;;;;6.30;5.79;;;;;;;22.43;68.16;100429.45;423935;124;925565;-71
2021/06/29 03:49:50;;;;;;;6.79;6.30;;;;;;;22.45;68.20;100431.91;432004;120;925122;-70
2021/06/29 03:50:54;;;;;;;9.59;6.37;;;;;;;22.48;68.25;100430.51;425073;122;924850;-71
2021/06/29 03:51:58;;;;;;;6.87;6.41;;;;;;;22.51;68.14;100435.45;432035;120;924294;-71
2021/06/29 03:53:02;;;;;;;6.08;5.61;;;;;;;22.53;68.05;100436.00;425070;123;925645;-72
2021/06/29 03:54:06;;;;;;;7.14;6.58;;;;;;;22.55;68.03;100437.34;433055;118;931982;-71
2021/06/29 03:55:10;;;;;;;7.49;6.51;;;;;;;22.59;67.96;100432.03;424739;124;924186;-71
2021/06/29 03:56:24;;;;;;;6.94;6.32;;;;;;;22.60;67.94;100431.74;431760;120;924097;-69
2021/06/29 03:57:27;;;;;;;6.99;6.49;;;;;;;22.63;67.82;100431.13;424607;122;923625;-70
2021/06/29 03:58:31;;;;;;;6.93;6.38;;;;;;;22.65;67.72;100431.67;432625;120;924351;-71
2021/06/29 03:59:35;;;;;;;6.39;5.84;;;;;;;22.66;67.58;100438.86;424451;123;931741;-71
2021/06/29 04:00:39;;;;;;;6.80;6.26;;;;;;;22.69;67.53;100437.45;432265;121;925820;-71
2021/06/29 04:01:43;;;;;;;6.53;6.06;;;;;;;22.70;67.43;100433.55;425323;122;923493;-72
2021/06/29 04:02:47;;;;;;;7.44;6.84;;;;;;;22.72;67.32;100443.26;432892;120;931399;-71
2021/06/29 04:03:55;;;;;;;7.00;6.40;;;;;;;22.72;67.26;100431.31;425468;122;923609;-72
2021/06/29 04:04:58;;;;;;;7.12;6.49;;;;;;;22.72;67.31;100437.70;432428;120;924611;-71
2021/06/29 04:06:02;;;;;;;9.22;6.53;;;;;;;22.71;67.41;100436.07;424378;122;922693;-72
2021/06/29 04:07:08;;;;;;;6.89;6.43;;;;;;;22.72;67.44;100440.48;432542;120;923907;-71
2021/06/29 04:08:11;;;;;;;8.23;7.18;;;;;;;22.73;67.44;100430.19;432368;122;924130;-70
2021/06/29 04:09:15;;;;;;;7.08;6.45;;;;;;;22.73;67.49;100432.97;424586;120;924168;-69
2021/06/29 04:10:19;;;;;;;7.25;6.68;;;;;;;22.74;67.51;100445.75;423756;123;924748;-71
2021/06/29 04:11:25;;;;;;;6.64;6.14;;;;;;;22.74;67.49;100443.80;424166;123;924526;-71
2021/06/29 04:12:29;;;;;;;7.02;6.50;;;;;;;22.75;67.41;100447.41;427207;123;924148;-71
2021/06/29 04:13:33;;;;;;;7.67;6.71;;;;;;;22.75;67.39;100442.68;426996;121;924867;-71
2021/06/29 04:14:36;;;;;;;18.89;7.47;;;;;;;22.76;67.39;100440.73;423269;123;932087;-71
2021/06/29 04:15:40;;;;;;;6.77;6.21;;;;;;;22.78;67.43;100442.06;424528;122;924131;-71
2021/06/29 04:16:44;;;;;;;11.29;6.54;;;;;;;22.79;67.40;100448.45;423887;124;933537;-71
2021/06/29 04:17:47;;;;;;;7.32;6.75;;;;;;;22.79;67.41;100452.06;424490;122;924060;-70
2021/06/29 04:18:51;;;;;;;15.77;6.81;;;;;;;22.81;67.39;100451.77;423617;122;932055;-72
2021/06/29 04:19:57;;;;;;;6.16;5.71;;;;;;;22.81;67.41;100447.05;425113;122;933861;-70
2021/06/29 04:21:00;;;;;;;6.62;5.94;;;;;;;22.83;67.27;100443.95;423998;123;924049;-70
2021/06/29 04:22:04;;;;;;;6.19;5.76;;;;;;;22.83;67.15;100444.77;424875;122;924443;-70
2021/06/29 04:23:07;;;;;;;7.47;6.22;;;;;;;22.84;67.27;100449.22;423885;123;925405;-71
2021/06/29 04:24:11;;;;;;;7.56;5.94;;;;;;;22.85;67.37;100445.31;424898;122;932062;-70
2021/06/29 04:25:15;;;;;;;7.91;6.55;;;;;;;22.86;67.45;100449.75;424065;123;932028;-70
2021/06/29 04:26:20;;;;;;;10.84;7.09;;;;;;;22.90;67.47;100454.70;424161;122;922640;-71
2021/06/29 04:27:24;;;;;;;9.14;7.28;;;;;;;22.92;67.43;100453.29;423527;124;922659;-71
2021/06/29 04:28:29;;;;;;;11.62;7.31;;;;;;;22.93;67.35;100452.17;424723;122;931679;-72
2021/06/29 04:29:32;;;;;;;7.05;6.41;;;;;;;22.95;67.29;100452.67;424347;123;922548;-70
2021/06/29 04:30:36;;;;;;;8.23;6.79;;;;;;;22.98;67.12;100456.82;426047;122;923482;-69
2021/06/29 04:31:40;;;;;;;6.49;5.99;;;;;;;22.99;66.99;100452.92;424162;123;932125;-70
2021/06/29 04:32:43;;;;;;;7.08;6.45;;;;;;;23.01;66.96;100461.77;425197;122;932318;-71
2021/06/29 04:33:47;;;;;;;6.74;6.11;;;;;;;23.03;66.90;100457.58;423997;123;932041;-70
2021/06/29 04:34:51;;;;;;;6.34;5.79;;;;;;;23.05;66.84;100451.69;424503;119;924020;-70
2021/06/29 04:35:55;;;;;;;10.91;6.59;;;;;;;23.07;66.76;100455.02;431477;121;926230;-71
2021/06/29 04:36:58;;;;;;;13.72;6.99;;;;;;;23.08;66.81;100456.67;432034;120;924107;-71
2021/06/29 04:38:02;;;;;;;7.78;6.26;;;;;;;23.11;66.83;100458.83;424887;122;932017;-71
2021/06/29 04:39:06;;;;;;;22.14;7.36;;;;;;;23.13;66.78;100453.81;424648;122;932036;-71
2021/06/29 04:40:11;;;;;;;7.33;6.41;;;;;;;23.16;66.76;100458.76;427007;120;932580;-71
2021/06/29 04:41:15;;;;;;;9.21;7.07;;;;;;;23.17;66.67;100447.34;418367;123;924144;-73
2021/06/29 04:42:18;;;;;;;7.88;6.69;;;;;;;23.18;66.77;100451.78;423825;123;924095;-70
2021/06/29 04:43:22;;;;;;;12.33;6.59;;;;;;;23.20;66.79;100452.31;427634;122;924070;-71
2021/06/29 04:44:25;;;;;;;40.97;9.42;;;;;;;23.23;66.84;100450.87;427323;121;932137;-71
2021/06/29 04:45:29;;;;;;;7.13;6.17;;;;;;;23.25;66.84;100451.41;410920;127;924179;-71
2021/06/29 04:46:33;;;;;;;6.09;5.46;;;;;;;23.27;66.55;100454.69;408377;125;932950;-71
2021/06/29 04:47:45;;;;;;;5.56;5.11;;;;;;;23.27;66.21;100443.56;424253;123;924714;-71
2021/06/29 04:48:42;;;;;;;12.57;6.13;;;;;;;23.26;66.09;100448.33;422412;123;924037;-71
2021/06/29 04:49:46;;;;;;;6.72;5.92;;;;;;;23.27;66.19;100449.12;423937;123;924117;-71
2021/06/29 04:50:50;;;;;;;5.94;5.45;;;;;;;23.28;66.19;100446.05;419947;124;924143;-70
2021/06/29 04:51:54;;;;;;;5.62;5.11;;;;;;;23.31;66.21;100443.80;426930;122;925515;-70
2021/06/29 04:52:57;;;;;;;15.23;5.53;;;;;;;23.34;66.17;100444.02;420204;123;931945;-71
2021/06/29 04:54:01;;;;;;;8.34;5.69;;;;;;;23.37;66.19;100446.20;427380;121;931579;-70
2021/06/29 04:55:05;;;;;;;9.20;5.83;;;;;;;23.40;66.04;100448.38;418579;126;925194;-70
2021/06/29 04:56:18;;;;;;;7.11;6.07;;;;;;;23.41;65.98;100450.03;424184;124;931867;-69
2021/06/29 04:57:21;;;;;;;7.83;6.26;;;;;;;23.44;65.99;100448.58;424391;123;923325;-71
2021/06/29 04:58:25;;;;;;;9.78;6.31;;;;;;;23.46;65.93;100449.14;424433;123;924027;-71